createdAt,value
2023-02-07T00:00:15.266Z,100.00
2023-02-07T00:03:42.975Z,100.00
2023-02-07T00:07:10.521Z,100.00
2023-02-07T00:10:38.090Z,100.00
2023-02-07T00:14:05.964Z,100.00
2023-02-07T00:17:33.766Z,100.00
2023-02-07T00:21:01.677Z,100.00
2023-02-07T00:24:29.602Z,100.00
2023-02-07T00:27:57.893Z,100.00
2023-02-07T00:31:06.648Z,100.00
2023-02-07T00:33:55.461Z,100.00
2023-02-07T00:37:23.326Z,100.00
2023-02-07T00:40:31.439Z,100.00
2023-02-07T00:43:59.125Z,100.00
2023-02-07T00:47:26.986Z,100.00
2023-02-07T00:50:54.657Z,100.00
2023-02-07T00:54:22.264Z,100.00
2023-02-07T00:57:50.010Z,100.00
2023-02-07T01:01:17.644Z,100.00
2023-02-07T01:04:45.536Z,100.00
2023-02-07T01:08:13.348Z,100.00
2023-02-07T01:11:41.028Z,100.00
2023-02-07T01:15:08.751Z,100.00
2023-02-07T01:18:36.829Z,100.00
2023-02-07T01:21:45.243Z,100.00
2023-02-07T01:25:13.053Z,100.00
2023-02-07T01:28:40.964Z,100.00
2023-02-07T01:31:49.701Z,100.00
2023-02-07T01:35:17.505Z,100.00
2023-02-07T01:38:25.999Z,100.00
2023-02-07T01:40:55.922Z,100.00
2023-02-07T01:44:03.747Z,100.00
2023-02-07T01:47:31.701Z,100.00
2023-02-07T01:50:40.439Z,100.00
2023-02-07T01:54:08.153Z,100.00
2023-02-07T01:57:35.719Z,100.00
2023-02-07T02:01:03.323Z,100.00
2023-02-07T02:04:31.075Z,100.00
2023-02-07T02:07:58.890Z,100.00
2023-02-07T02:11:06.647Z,100.00
2023-02-07T02:14:34.651Z,100.00
2023-02-07T02:18:02.318Z,100.00
2023-02-07T02:21:29.934Z,100.00
2023-02-07T02:24:57.708Z,100.00
2023-02-07T02:28:25.636Z,100.00
2023-02-07T02:31:53.391Z,100.00
2023-02-07T02:35:21.460Z,100.00
2023-02-07T02:38:09.644Z,100.00
2023-02-07T02:41:37.500Z,100.00
2023-02-07T02:45:05.588Z,100.00
2023-02-07T02:48:33.486Z,100.00
2023-02-07T02:52:01.240Z,100.00
2023-02-07T02:55:28.895Z,100.00
2023-02-07T02:58:19.717Z,100.00
2023-02-07T03:01:26.341Z,100.00
2023-02-07T03:04:34.013Z,100.00
2023-02-07T03:08:01.647Z,100.00
2023-02-07T03:11:29.445Z,100.00
2023-02-07T03:14:57.280Z,100.00
2023-02-07T03:18:06.017Z,100.00
2023-02-07T03:21:33.921Z,100.00
2023-02-07T03:24:41.685Z,100.00
2023-02-07T03:27:30.870Z,100.00
2023-02-07T03:30:58.584Z,100.00
2023-02-07T03:34:07.269Z,100.00
2023-02-07T03:36:38.966Z,100.00
2023-02-07T03:40:06.822Z,100.00
2023-02-07T03:43:34.586Z,100.00
2023-02-07T03:46:42.914Z,100.00
2023-02-07T03:49:51.300Z,100.00
2023-02-07T03:53:19.147Z,100.00
2023-02-07T03:56:46.912Z,100.00
2023-02-07T04:00:14.733Z,100.00
2023-02-07T04:03:42.510Z,100.00
2023-02-07T04:07:10.184Z,100.00
2023-02-07T04:10:18.038Z,100.00
2023-02-07T04:13:45.592Z,100.00
2023-02-07T04:17:13.416Z,100.00
2023-02-07T04:20:41.080Z,100.00
2023-02-07T04:24:08.644Z,100.00
2023-02-07T04:27:39.471Z,100.00
2023-02-07T04:31:07.044Z,100.00
2023-02-07T04:34:35.247Z,100.00
2023-02-07T04:38:03.074Z,100.00
2023-02-07T04:41:30.848Z,100.00
2023-02-07T04:44:58.661Z,100.00
2023-02-07T04:48:26.509Z,100.00
2023-02-07T04:51:54.016Z,100.00
2023-02-07T04:55:21.962Z,100.00
2023-02-07T04:58:49.718Z,100.00
2023-02-07T05:02:17.513Z,100.00
2023-02-07T05:05:45.406Z,100.00
2023-02-07T05:09:13.521Z,100.00
2023-02-07T05:12:22.241Z,100.00
2023-02-07T05:15:49.955Z,100.00
2023-02-07T05:19:17.678Z,100.00
2023-02-07T05:22:45.498Z,100.00
2023-02-07T05:26:15.448Z,100.00
2023-02-07T05:29:26.343Z,100.00
2023-02-07T05:32:15.428Z,100.00
2023-02-07T05:35:43.248Z,100.00
2023-02-07T05:38:51.789Z,100.00
2023-02-07T05:42:19.575Z,100.00
2023-02-07T05:45:47.169Z,100.00
2023-02-07T05:49:14.846Z,100.00
2023-02-07T05:52:24.003Z,100.00
2023-02-07T05:55:51.958Z,100.00
2023-02-07T05:59:02.219Z,100.00
2023-02-07T06:02:30.056Z,100.00
2023-02-07T06:05:57.553Z,100.00
2023-02-07T06:09:25.322Z,100.00
2023-02-07T06:12:34.155Z,100.00
2023-02-07T06:16:01.939Z,100.00
2023-02-07T06:19:31.167Z,100.00
2023-02-07T06:22:58.999Z,100.00
2023-02-07T06:26:07.723Z,100.00
2023-02-07T06:29:17.347Z,100.00
2023-02-07T06:32:26.994Z,100.00
2023-02-07T06:35:54.728Z,100.00
2023-02-07T06:39:22.679Z,100.00
2023-02-07T06:42:50.540Z,100.00
2023-02-07T06:46:18.705Z,100.00
2023-02-07T06:49:46.413Z,100.00
2023-02-07T06:52:54.074Z,100.00
2023-02-07T06:56:21.946Z,100.00
2023-02-07T06:59:50.142Z,100.00
2023-02-07T07:03:18.632Z,100.00
2023-02-07T07:06:46.419Z,100.00
2023-02-07T07:09:42.567Z,100.00
2023-02-07T07:12:54.585Z,100.00
2023-02-07T07:16:22.256Z,100.00
2023-02-07T07:19:34.174Z,100.00
2023-02-07T07:22:42.937Z,100.00
2023-02-07T07:26:10.921Z,100.00
2023-02-07T07:29:23.534Z,100.00
2023-02-07T07:31:54.604Z,100.00
2023-02-07T07:35:22.553Z,100.00
2023-02-07T07:38:51.373Z,100.00
2023-02-07T07:42:18.720Z,100.00
2023-02-07T07:45:55.588Z,100.00
2023-02-07T07:49:23.344Z,100.00
2023-02-07T07:52:51.156Z,100.00
2023-02-07T07:56:18.933Z,100.00
2023-02-07T07:59:46.494Z,100.00
2023-02-07T08:03:01.166Z,100.00
2023-02-07T08:06:28.939Z,100.00
2023-02-07T08:09:57.192Z,100.00
2023-02-07T08:13:27.520Z,100.00
2023-02-07T08:16:52.998Z,100.00
2023-02-07T08:20:20.907Z,100.00
2023-02-07T08:23:11.306Z,100.00
2023-02-07T08:26:00.091Z,100.00
2023-02-07T08:29:28.195Z,100.00
2023-02-07T08:32:17.027Z,100.00
2023-02-07T08:35:44.936Z,100.00
2023-02-07T08:38:53.313Z,100.00
2023-02-07T08:42:20.978Z,100.00
2023-02-07T08:45:29.640Z,100.00
2023-02-07T08:48:57.149Z,100.00
2023-02-07T08:52:25.186Z,100.00
2023-02-07T08:55:32.984Z,99.90
2023-02-07T08:59:01.192Z,100.00
2023-02-07T09:02:09.630Z,99.26
2023-02-07T09:05:18.295Z,99.24
2023-02-07T09:08:45.948Z,99.26
2023-02-07T09:11:17.437Z,99.84
2023-02-07T09:14:04.630Z,99.48
2023-02-07T09:17:12.547Z,100.00
2023-02-07T09:20:21.630Z,100.00
2023-02-07T09:23:30.395Z,100.00
2023-02-07T09:26:38.616Z,100.00
2023-02-07T09:30:06.515Z,99.84
2023-02-07T09:33:15.793Z,99.85
2023-02-07T09:36:43.600Z,99.63
2023-02-07T09:40:11.295Z,99.64
2023-02-07T09:43:39.452Z,99.83
2023-02-07T09:47:06.838Z,97.89
2023-02-07T09:50:34.563Z,97.88
2023-02-07T09:54:02.401Z,97.26
2023-02-07T09:57:29.991Z,96.90
2023-02-07T10:00:23.233Z,97.64
2023-02-07T10:03:51.442Z,95.57
2023-02-07T10:07:19.209Z,94.29
2023-02-07T10:10:46.897Z,94.92
2023-02-07T10:14:14.648Z,94.61
2023-02-07T10:17:42.712Z,92.36
2023-02-07T10:21:10.489Z,91.15
2023-02-07T10:24:38.117Z,93.01
2023-02-07T10:28:05.720Z,91.51
2023-02-07T10:31:33.486Z,91.45
2023-02-07T10:35:01.275Z,90.40
2023-02-07T10:38:29.078Z,88.59
2023-02-07T10:41:56.833Z,86.98
2023-02-07T10:45:24.744Z,82.89
2023-02-07T10:48:52.500Z,79.92
2023-02-07T10:52:00.247Z,78.38
2023-02-07T10:55:27.860Z,77.04
2023-02-07T10:58:55.294Z,76.54
2023-02-07T11:02:23.058Z,76.46
2023-02-07T11:05:50.757Z,76.06
2023-02-07T11:08:59.524Z,76.36
2023-02-07T11:12:27.533Z,76.53
2023-02-07T11:15:35.912Z,76.48
2023-02-07T11:18:45.719Z,76.35
2023-02-07T11:22:12.030Z,74.00
2023-02-07T11:25:19.652Z,74.04
2023-02-07T11:28:47.407Z,72.84
2023-02-07T11:31:56.977Z,70.30
2023-02-07T11:35:24.617Z,68.43
2023-02-07T11:38:52.257Z,69.67
2023-02-07T11:42:20.232Z,65.24
2023-02-07T11:45:48.078Z,66.80
2023-02-07T11:49:15.646Z,67.18
2023-02-07T11:52:43.379Z,69.20
2023-02-07T11:56:10.938Z,69.23
2023-02-07T11:59:38.429Z,69.01
2023-02-07T12:03:06.073Z,68.53
2023-02-07T12:06:33.547Z,65.89
2023-02-07T12:10:01.169Z,66.46
2023-02-07T12:13:28.808Z,67.46
2023-02-07T12:16:56.744Z,67.28
2023-02-07T12:19:45.335Z,67.56
2023-02-07T12:23:39.620Z,67.48
2023-02-07T12:26:40.918Z,66.78
2023-02-07T12:30:08.784Z,65.70
2023-02-07T12:33:36.466Z,64.30
2023-02-07T12:37:05.293Z,62.58
2023-02-07T12:40:13.174Z,63.80
2023-02-07T12:43:02.676Z,61.84
2023-02-07T12:46:30.079Z,61.35
2023-02-07T12:49:57.658Z,60.97
2023-02-07T12:53:25.662Z,61.40
2023-02-07T12:56:53.308Z,61.22
2023-02-07T13:00:01.500Z,60.02
2023-02-07T13:03:31.882Z,59.83
2023-02-07T13:06:59.457Z,60.34
2023-02-07T13:10:08.023Z,59.47
2023-02-07T13:13:35.670Z,58.61
2023-02-07T13:17:03.455Z,58.34
2023-02-07T13:20:31.012Z,57.51
2023-02-07T13:23:58.929Z,57.47
2023-02-07T13:27:26.689Z,57.54
2023-02-07T13:30:54.579Z,56.99
2023-02-07T13:34:22.426Z,57.74
2023-02-07T13:37:49.949Z,58.84
2023-02-07T13:40:58.109Z,56.79
2023-02-07T13:44:25.930Z,57.05
2023-02-07T13:47:34.688Z,56.55
2023-02-07T13:51:02.416Z,56.09
2023-02-07T13:54:30.039Z,55.00
2023-02-07T13:57:38.280Z,55.09
2023-02-07T14:01:06.005Z,54.78
2023-02-07T14:04:36.960Z,54.24
2023-02-07T14:08:04.669Z,54.50
2023-02-07T14:11:32.570Z,55.46
2023-02-07T14:14:42.185Z,57.09
2023-02-07T14:18:08.797Z,59.32
2023-02-07T14:21:36.450Z,61.89
2023-02-07T14:24:45.327Z,62.71
2023-02-07T14:28:13.033Z,63.87
2023-02-07T14:31:40.986Z,64.58
2023-02-07T14:34:49.718Z,65.84
2023-02-07T14:37:39.403Z,66.50
2023-02-07T14:41:10.964Z,67.29
2023-02-07T14:44:35.014Z,67.16
2023-02-07T14:48:02.652Z,66.68
2023-02-07T14:51:30.175Z,66.57
2023-02-07T14:54:19.721Z,66.19
2023-02-07T14:57:47.380Z,64.79
2023-02-07T15:00:55.635Z,64.42
2023-02-07T15:04:24.737Z,65.08
2023-02-07T15:07:52.584Z,65.31
2023-02-07T15:11:20.310Z,65.09
2023-02-07T15:14:28.928Z,64.91
2023-02-07T15:17:44.198Z,65.26
2023-02-07T15:20:45.648Z,66.64
2023-02-07T15:24:13.337Z,66.63
2023-02-07T15:27:22.315Z,67.42
2023-02-07T15:30:50.294Z,68.46
2023-02-07T15:34:18.246Z,68.17
2023-02-07T15:37:46.092Z,68.81
2023-02-07T15:40:55.018Z,69.33
2023-02-07T15:44:22.904Z,69.65
2023-02-07T15:47:50.529Z,70.26
2023-02-07T15:51:18.319Z,71.16
2023-02-07T15:54:42.447Z,71.67
2023-02-07T15:58:05.864Z,72.35
2023-02-07T16:01:22.924Z,73.59
2023-02-07T16:04:38.693Z,74.84
2023-02-07T16:07:47.054Z,77.51
2023-02-07T16:11:14.867Z,76.38
2023-02-07T16:14:42.698Z,77.59
2023-02-07T16:18:10.352Z,79.57
2023-02-07T16:21:37.820Z,80.64
2023-02-07T16:25:05.799Z,79.96
2023-02-07T16:28:13.679Z,79.82
2023-02-07T16:31:41.440Z,80.20
2023-02-07T16:35:09.119Z,80.41
2023-02-07T16:38:36.663Z,81.55
2023-02-07T16:42:04.300Z,81.25
2023-02-07T16:45:13.118Z,80.42
2023-02-07T16:48:21.472Z,81.74
2023-02-07T16:51:49.305Z,82.13
2023-02-07T16:55:17.115Z,81.79
2023-02-07T16:58:44.756Z,83.34
2023-02-07T17:02:12.398Z,84.44
2023-02-07T17:05:40.190Z,85.46
2023-02-07T17:08:48.678Z,85.87
2023-02-07T17:12:16.605Z,88.50
2023-02-07T17:15:44.699Z,88.68
2023-02-07T17:19:12.480Z,90.06
2023-02-07T17:22:40.233Z,91.85
2023-02-07T17:26:08.014Z,91.16
2023-02-07T17:29:35.596Z,91.15
2023-02-07T17:32:44.404Z,91.17
2023-02-07T17:36:14.858Z,91.83
2023-02-07T17:39:42.427Z,93.78
2023-02-07T17:43:10.223Z,92.74
2023-02-07T17:46:37.768Z,92.67
2023-02-07T17:50:05.468Z,92.31
2023-02-07T17:53:33.079Z,92.95
2023-02-07T17:56:41.910Z,92.77
2023-02-07T18:00:09.776Z,93.34
2023-02-07T18:03:37.620Z,93.54
2023-02-07T18:06:45.806Z,93.70
2023-02-07T18:10:13.740Z,93.36
2023-02-07T18:13:03.204Z,94.03
2023-02-07T18:15:32.116Z,94.29
2023-02-07T18:18:21.263Z,95.00
2023-02-07T18:20:52.004Z,95.51
2023-02-07T18:23:49.298Z,95.87
2023-02-07T18:26:41.457Z,97.00
2023-02-07T18:29:51.670Z,97.01
2023-02-07T18:32:48.031Z,97.73
2023-02-07T18:36:11.873Z,99.64
2023-02-07T18:39:39.636Z,100.00
2023-02-07T18:42:49.627Z,99.89
2023-02-07T18:46:05.888Z,100.00
2023-02-07T18:48:36.013Z,100.00
2023-02-07T18:51:45.160Z,100.00
2023-02-07T18:54:53.615Z,100.00
2023-02-07T18:57:25.938Z,100.00
2023-02-07T19:00:34.919Z,100.00
2023-02-07T19:03:56.057Z,100.00
2023-02-07T19:07:08.700Z,99.98
2023-02-07T19:10:15.890Z,100.00
2023-02-07T19:13:25.693Z,100.00
2023-02-07T19:16:33.646Z,100.00
2023-02-07T19:19:58.582Z,100.00
2023-02-07T19:23:08.050Z,100.00
2023-02-07T19:26:35.972Z,100.00
2023-02-07T19:30:03.813Z,99.67
2023-02-07T19:33:31.679Z,99.89
2023-02-07T19:36:59.688Z,99.82
2023-02-07T19:40:08.800Z,100.00
2023-02-07T19:43:37.021Z,100.00
2023-02-07T19:47:04.924Z,100.00
2023-02-07T19:50:32.826Z,100.00
2023-02-07T19:53:36.897Z,100.00
2023-02-07T19:56:26.352Z,100.00
2023-02-07T19:59:56.400Z,100.00
2023-02-07T20:03:22.779Z,100.00
2023-02-07T20:06:31.036Z,100.00
2023-02-07T20:09:41.475Z,100.00
2023-02-07T20:12:50.789Z,100.00
2023-02-07T20:16:18.823Z,100.00
2023-02-07T20:19:46.856Z,100.00
2023-02-07T20:23:14.578Z,100.00
2023-02-07T20:26:03.009Z,100.00
2023-02-07T20:29:30.726Z,100.00
2023-02-07T20:32:58.401Z,100.00
2023-02-07T20:36:07.474Z,100.00
2023-02-07T20:39:35.377Z,100.00
2023-02-07T20:42:51.005Z,100.00
2023-02-07T20:46:18.969Z,100.00
2023-02-07T20:49:07.538Z,100.00
2023-02-07T20:52:17.208Z,100.00
2023-02-07T20:55:45.460Z,100.00
2023-02-07T20:59:14.174Z,100.00
2023-02-07T21:01:43.481Z,100.00
2023-02-07T21:04:53.127Z,100.00
2023-02-07T21:08:21.330Z,100.00
2023-02-07T21:11:09.929Z,100.00
2023-02-07T21:14:37.630Z,100.00
2023-02-07T21:18:01.638Z,100.00
2023-02-07T21:20:50.404Z,100.00
2023-02-07T21:24:18.217Z,100.00
2023-02-07T21:27:46.336Z,100.00
2023-02-07T21:31:14.512Z,100.00
2023-02-07T21:34:23.062Z,100.00
2023-02-07T21:37:50.803Z,100.00
2023-02-07T21:41:18.534Z,100.00
2023-02-07T21:44:07.257Z,100.00
2023-02-07T21:47:35.075Z,100.00
2023-02-07T21:50:42.957Z,100.00
2023-02-07T21:54:10.754Z,100.00
2023-02-07T21:57:38.512Z,100.00
2023-02-07T22:00:47.099Z,100.00
2023-02-07T22:04:14.922Z,100.00
2023-02-07T22:07:43.882Z,100.00
2023-02-07T22:11:11.800Z,100.00
2023-02-07T22:14:39.700Z,100.00
2023-02-07T22:18:07.571Z,100.00
2023-02-07T22:21:35.353Z,100.00
2023-02-07T22:25:03.098Z,100.00
2023-02-07T22:28:30.999Z,100.00
2023-02-07T22:31:40.206Z,100.00
2023-02-07T22:35:08.301Z,100.00
2023-02-07T22:38:36.181Z,100.00
2023-02-07T22:42:06.957Z,100.00
2023-02-07T22:45:43.900Z,100.00
2023-02-07T22:49:11.037Z,100.00
2023-02-07T22:52:20.700Z,100.00
2023-02-07T22:55:30.579Z,100.00
2023-02-07T22:58:54.063Z,100.00
2023-02-07T23:02:22.645Z,100.00
2023-02-07T23:05:35.422Z,100.00
2023-02-07T23:09:04.630Z,100.00
2023-02-07T23:12:33.232Z,100.00
2023-02-07T23:16:01.365Z,100.00
2023-02-07T23:19:30.462Z,100.00
2023-02-07T23:23:00.053Z,100.00
2023-02-07T23:26:27.685Z,100.00
2023-02-07T23:29:56.290Z,100.00
2023-02-07T23:33:27.717Z,100.00
2023-02-07T23:36:59.913Z,100.00
2023-02-07T23:40:14.391Z,100.00
2023-02-07T23:43:42.146Z,100.00
2023-02-07T23:47:18.848Z,100.00
2023-02-07T23:50:48.317Z,100.00
2023-02-07T23:53:56.242Z,100.00
2023-02-07T23:57:13.580Z,100.00
